createdAt,value
2019-06-10T00:00:42.073Z,90.20
2019-06-10T00:03:11.654Z,90.40
2019-06-10T00:05:41.432Z,90.50
2019-06-10T00:08:11.779Z,90.50
2019-06-10T00:10:42.094Z,90.50
2019-06-10T00:13:12.006Z,90.70
2019-06-10T00:15:41.266Z,90.70
2019-06-10T00:18:34.307Z,90.90
2019-06-10T00:20:41.918Z,91.00
2019-06-10T00:23:12.302Z,91.00
2019-06-10T00:25:41.863Z,91.00
2019-06-10T00:28:12.161Z,91.20
2019-06-10T00:30:41.589Z,91.20
2019-06-10T00:33:12.509Z,91.40
2019-06-10T00:35:41.391Z,91.40
2019-06-10T00:38:13.904Z,91.60
2019-06-10T00:40:41.396Z,91.70
2019-06-10T00:43:13.167Z,91.80
2019-06-10T00:45:41.328Z,91.90
2019-06-10T00:48:21.327Z,92.10
2019-06-10T00:50:41.636Z,92.00
2019-06-10T00:53:14.096Z,92.20
2019-06-10T00:55:41.704Z,92.30
2019-06-10T00:58:13.847Z,92.30
2019-06-10T01:00:41.877Z,92.30
2019-06-10T01:03:13.544Z,92.50
2019-06-10T01:05:42.016Z,92.50
2019-06-10T01:08:13.954Z,92.60
2019-06-10T01:10:43.757Z,92.60
2019-06-10T01:13:15.265Z,92.70
2019-06-10T01:15:43.329Z,93.10
2019-06-10T01:18:30.591Z,93.00
2019-06-10T01:20:42.740Z,93.00
2019-06-10T01:23:13.813Z,93.00
2019-06-10T01:25:42.498Z,93.40
2019-06-10T01:28:14.599Z,93.30
2019-06-10T01:30:42.006Z,93.70
2019-06-10T01:33:12.726Z,94.00
2019-06-10T01:35:41.664Z,94.00
2019-06-10T01:38:12.844Z,94.10
2019-06-10T01:40:42.097Z,94.50
2019-06-10T01:43:13.996Z,94.60
2019-06-10T01:45:42.252Z,94.60
2019-06-10T01:48:12.040Z,94.90
2019-06-10T01:50:41.605Z,95.00
2019-06-10T01:53:14.081Z,95.20
2019-06-10T01:55:41.760Z,95.30
2019-06-10T01:58:14.639Z,95.20
2019-06-10T02:00:45.648Z,95.50
2019-06-10T02:03:16.578Z,95.70
2019-06-10T02:05:44.908Z,95.80
2019-06-10T02:08:14.984Z,96.00
2019-06-10T02:10:43.997Z,95.90
2019-06-10T02:13:33.475Z,96.00
2019-06-10T02:16:03.355Z,96.10
2019-06-10T02:18:32.317Z,96.30
2019-06-10T02:21:01.429Z,96.30
2019-06-10T02:23:31.497Z,96.90
2019-06-10T02:26:01.750Z,96.70
2019-06-10T02:28:31.703Z,96.60
2019-06-10T02:31:03.086Z,96.90
2019-06-10T02:33:36.033Z,97.00
2019-06-10T02:36:04.107Z,97.10
2019-06-10T02:38:38.823Z,97.20
2019-06-10T02:41:04.389Z,97.30
2019-06-10T02:43:37.656Z,97.50
2019-06-10T02:46:05.404Z,97.50
2019-06-10T02:48:35.427Z,97.70
2019-06-10T02:51:06.792Z,97.90
2019-06-10T02:53:37.080Z,98.10
2019-06-10T02:56:07.238Z,98.20
2019-06-10T02:58:39.205Z,98.30
2019-06-10T03:01:06.781Z,98.20
2019-06-10T03:03:43.534Z,98.30
2019-06-10T03:06:08.436Z,98.30
2019-06-10T03:08:36.927Z,98.10
2019-06-10T03:11:06.090Z,97.90
2019-06-10T03:13:34.778Z,97.30
2019-06-10T03:16:22.632Z,97.60
2019-06-10T03:18:52.571Z,97.50
2019-06-10T03:21:24.207Z,97.10
2019-06-10T03:23:53.136Z,96.90
2019-06-10T03:26:23.933Z,96.80
2019-06-10T03:28:52.145Z,96.60
2019-06-10T03:31:28.358Z,96.60
2019-06-10T03:33:54.383Z,96.40
2019-06-10T03:36:23.132Z,96.40
2019-06-10T03:38:53.750Z,96.40
2019-06-10T03:41:24.680Z,96.20
2019-06-10T03:43:53.195Z,96.10
2019-06-10T03:46:24.278Z,96.00
2019-06-10T03:48:52.717Z,95.80
2019-06-10T03:51:23.999Z,95.80
2019-06-10T03:53:53.155Z,95.80
2019-06-10T03:56:23.841Z,95.60
2019-06-10T03:58:52.400Z,95.40
2019-06-10T04:01:24.387Z,95.40
2019-06-10T04:03:52.965Z,95.50
2019-06-10T04:06:24.202Z,95.30
2019-06-10T04:08:52.369Z,95.30
2019-06-10T04:11:24.097Z,95.10
2019-06-10T04:13:53.527Z,95.00
2019-06-10T04:16:22.647Z,94.80
2019-06-10T04:18:53.410Z,94.60
2019-06-10T04:21:23.888Z,94.70
2019-06-10T04:23:52.965Z,94.90
2019-06-10T04:26:24.102Z,94.30
2019-06-10T04:28:53.010Z,93.50
2019-06-10T04:31:23.801Z,92.60
2019-06-10T04:33:52.470Z,92.10
2019-06-10T04:36:24.504Z,91.80
2019-06-10T04:38:52.483Z,91.30
2019-06-10T04:41:24.325Z,91.30
2019-06-10T04:43:53.184Z,91.50
2019-06-10T04:46:24.591Z,91.10
2019-06-10T04:48:53.278Z,90.90
2019-06-10T04:51:23.925Z,90.70
2019-06-10T04:53:52.712Z,90.30
2019-06-10T04:56:24.133Z,90.70
2019-06-10T04:58:52.555Z,90.60
2019-06-10T05:01:24.000Z,90.00
2019-06-10T05:03:52.655Z,89.20
2019-06-10T05:06:32.614Z,88.50
2019-06-10T05:08:58.936Z,87.90
2019-06-10T05:11:28.943Z,87.70
2019-06-10T05:13:58.053Z,85.40
2019-06-10T05:16:30.063Z,84.50
2019-06-10T05:18:57.146Z,84.60
2019-06-10T05:21:28.010Z,85.20
2019-06-10T05:23:56.253Z,85.80
2019-06-10T05:26:26.147Z,86.90
2019-06-10T05:28:55.378Z,83.60
2019-06-10T05:31:28.235Z,82.40
2019-06-10T05:33:54.500Z,82.60
2019-06-10T05:36:25.703Z,80.80
2019-06-10T05:38:53.605Z,80.00
2019-06-10T05:41:24.873Z,80.90
2019-06-10T05:43:52.708Z,80.40
2019-06-10T05:46:23.630Z,82.40
2019-06-10T05:48:52.636Z,82.90
2019-06-10T05:51:23.150Z,82.20
2019-06-10T05:53:52.844Z,80.00
2019-06-10T05:56:23.344Z,79.30
2019-06-10T05:58:52.604Z,78.30
2019-06-10T06:01:23.824Z,78.50
2019-06-10T06:03:53.007Z,78.10
2019-06-10T06:06:22.989Z,78.50
2019-06-10T06:08:53.352Z,78.60
2019-06-10T06:11:23.166Z,76.90
2019-06-10T06:13:52.404Z,76.90
2019-06-10T06:16:23.013Z,76.80
2019-06-10T06:18:52.743Z,76.60
2019-06-10T06:21:29.609Z,78.20
2019-06-10T06:23:52.873Z,77.90
2019-06-10T06:26:23.543Z,77.30
2019-06-10T06:28:53.522Z,76.70
2019-06-10T06:31:23.229Z,76.70
2019-06-10T06:33:52.698Z,76.80
2019-06-10T06:36:22.661Z,76.90
2019-06-10T06:38:53.194Z,77.20
2019-06-10T06:41:22.675Z,76.80
2019-06-10T06:43:53.103Z,77.00
2019-06-10T06:46:23.453Z,76.40
2019-06-10T06:48:53.271Z,76.00
2019-06-10T06:51:35.701Z,75.80
2019-06-10T06:53:56.139Z,75.10
2019-06-10T06:56:23.290Z,73.00
2019-06-10T06:58:52.533Z,70.40
2019-06-10T07:01:25.168Z,67.40
2019-06-10T07:03:53.666Z,64.50
2019-06-10T07:06:23.856Z,63.30
2019-06-10T07:09:04.117Z,63.90
2019-06-10T07:11:24.435Z,63.50
2019-06-10T07:13:55.185Z,63.10
2019-06-10T07:16:23.914Z,62.90
2019-06-10T07:18:54.051Z,61.30
2019-06-10T07:21:22.985Z,63.30
2019-06-10T07:23:52.841Z,62.90
2019-06-10T07:26:22.311Z,62.60
2019-06-10T07:28:53.620Z,62.30
2019-06-10T07:31:27.499Z,60.80
2019-06-10T07:33:52.549Z,61.50
2019-06-10T07:36:23.502Z,61.20
2019-06-10T07:38:54.059Z,61.70
2019-06-10T07:41:23.204Z,61.90
2019-06-10T07:43:52.766Z,62.10
2019-06-10T07:46:23.105Z,61.30
2019-06-10T07:48:56.354Z,61.60
2019-06-10T07:51:22.790Z,62.00
2019-06-10T07:53:52.545Z,63.50
2019-06-10T07:56:23.366Z,62.90
2019-06-10T07:58:52.944Z,62.20
2019-06-10T08:01:22.956Z,61.40
2019-06-10T08:03:52.672Z,60.90
2019-06-10T08:06:22.989Z,61.40
2019-06-10T08:08:53.243Z,60.80
2019-06-10T08:11:22.844Z,60.40
2019-06-10T08:13:53.819Z,59.80
2019-06-10T08:16:23.614Z,59.30
2019-06-10T08:19:20.540Z,59.70
2019-06-10T08:21:23.167Z,58.00
2019-06-10T08:23:54.378Z,58.30
2019-06-10T08:26:25.547Z,56.00
2019-06-10T08:28:54.300Z,56.50
2019-06-10T08:31:23.025Z,56.60
2019-06-10T08:33:53.365Z,56.20
2019-06-10T08:36:22.724Z,56.20
2019-06-10T08:38:52.653Z,55.70
2019-06-10T08:41:23.048Z,54.10
2019-06-10T08:43:52.884Z,53.70
2019-06-10T08:46:22.582Z,52.90
2019-06-10T08:48:52.584Z,52.60
2019-06-10T08:51:23.702Z,50.30
2019-06-10T08:53:53.233Z,51.90
2019-06-10T08:56:22.495Z,51.80
2019-06-10T08:58:53.831Z,48.80
2019-06-10T09:01:22.335Z,49.30
2019-06-10T09:03:53.739Z,49.50
2019-06-10T09:06:23.049Z,50.70
2019-06-10T09:08:54.454Z,51.10
2019-06-10T09:11:23.750Z,50.50
2019-06-10T09:13:53.176Z,50.40
2019-06-10T09:16:22.924Z,49.90
2019-06-10T09:18:54.911Z,48.70
2019-06-10T09:21:22.435Z,47.60
2019-06-10T09:23:58.655Z,47.50
2019-06-10T09:26:22.903Z,47.60
2019-06-10T09:28:55.875Z,49.00
2019-06-10T09:31:23.305Z,49.90
2019-06-10T09:33:56.622Z,50.10
2019-06-10T09:36:23.692Z,50.80
2019-06-10T09:38:54.977Z,51.20
2019-06-10T09:41:36.107Z,51.40
2019-06-10T09:43:57.069Z,52.00
2019-06-10T09:46:25.627Z,52.40
2019-06-10T09:48:56.053Z,53.20
2019-06-10T09:51:26.097Z,53.50
2019-06-10T09:54:02.384Z,54.20
2019-06-10T09:56:25.179Z,53.30
2019-06-10T09:58:55.347Z,53.40
2019-06-10T10:01:24.734Z,53.90
2019-06-10T10:03:59.763Z,54.20
2019-06-10T10:06:24.457Z,53.80
2019-06-10T10:08:58.065Z,54.70
2019-06-10T10:11:27.594Z,55.40
2019-06-10T10:13:54.678Z,54.70
2019-06-10T10:16:23.413Z,54.50
2019-06-10T10:18:57.527Z,55.20
2019-06-10T10:21:22.558Z,55.70
2019-06-10T10:24:06.575Z,55.30
2019-06-10T10:26:21.636Z,53.20
2019-06-10T10:28:53.218Z,54.70
2019-06-10T10:31:23.018Z,52.10
2019-06-10T10:33:52.567Z,53.00
2019-06-10T10:36:22.650Z,52.50
2019-06-10T10:38:52.283Z,56.00
2019-06-10T10:41:23.994Z,56.60
2019-06-10T10:43:56.538Z,57.20
2019-06-10T10:46:23.206Z,57.30
2019-06-10T10:48:56.018Z,55.20
2019-06-10T10:51:23.128Z,52.90
2019-06-10T10:54:18.732Z,53.30
2019-06-10T10:56:22.497Z,53.80
2019-06-10T10:58:55.635Z,53.70
2019-06-10T11:01:23.656Z,53.70
2019-06-10T11:03:58.174Z,55.50
2019-06-10T11:06:23.210Z,56.20
2019-06-10T11:08:57.094Z,56.30
2019-06-10T11:11:24.172Z,56.90
2019-06-10T11:13:56.693Z,55.90
2019-06-10T11:16:23.024Z,55.10
2019-06-10T11:18:54.092Z,54.80
2019-06-10T11:21:22.871Z,55.50
2019-06-10T11:23:53.799Z,56.30
2019-06-10T11:26:22.830Z,56.60
2019-06-10T11:28:55.357Z,56.00
2019-06-10T11:31:22.833Z,54.00
2019-06-10T11:33:56.127Z,54.70
2019-06-10T11:36:22.924Z,55.20
2019-06-10T11:38:55.129Z,54.50
2019-06-10T11:41:23.725Z,54.70
2019-06-10T11:43:56.060Z,54.30
2019-06-10T11:46:23.094Z,54.00
2019-06-10T11:48:55.273Z,54.40
2019-06-10T11:51:23.484Z,54.80
2019-06-10T11:53:54.324Z,54.50
2019-06-10T11:56:22.646Z,54.20
2019-06-10T11:58:55.140Z,54.30
2019-06-10T12:01:22.923Z,54.70
2019-06-10T12:03:54.066Z,55.80
2019-06-10T12:06:22.895Z,57.60
2019-06-10T12:08:57.389Z,58.40
2019-06-10T12:11:23.067Z,58.80
2019-06-10T12:13:57.746Z,58.20
2019-06-10T12:18:54.174Z,58.30
2019-06-10T12:21:23.721Z,58.70
2019-06-10T12:23:57.027Z,58.20
2019-06-10T12:26:23.617Z,58.10
2019-06-10T12:28:54.656Z,57.90
2019-06-10T12:31:23.337Z,58.10
2019-06-10T12:33:55.341Z,58.80
2019-06-10T12:36:23.744Z,58.10
2019-06-10T12:38:56.401Z,59.10
2019-06-10T12:41:23.477Z,58.80
2019-06-10T12:43:53.084Z,58.80
2019-06-10T12:46:23.180Z,58.70
2019-06-10T12:48:53.973Z,58.30
2019-06-10T12:51:22.975Z,59.10
2019-06-10T12:53:53.161Z,59.00
2019-06-10T12:56:22.813Z,58.50
2019-06-10T12:58:54.092Z,57.70
2019-06-10T13:01:22.072Z,58.00
2019-06-10T13:03:53.598Z,58.20
2019-06-10T13:06:23.500Z,57.90
2019-06-10T13:08:56.407Z,57.70
2019-06-10T13:11:26.081Z,57.90
2019-06-10T13:13:56.207Z,57.20
2019-06-10T13:16:25.163Z,57.80
2019-06-10T13:18:54.017Z,57.90
2019-06-10T13:21:22.984Z,58.10
2019-06-10T13:23:54.131Z,57.70
2019-06-10T13:26:23.256Z,57.30
2019-06-10T13:28:52.582Z,56.50
2019-06-10T13:31:23.549Z,56.40
2019-06-10T13:33:52.879Z,56.30
2019-06-10T13:36:25.862Z,56.40
2019-06-10T13:38:53.254Z,56.80
2019-06-10T13:41:22.774Z,57.20
2019-06-10T13:43:52.847Z,57.90
2019-06-10T13:46:24.563Z,58.10
2019-06-10T13:48:52.647Z,58.70
2019-06-10T13:51:21.369Z,58.00
2019-06-10T13:53:50.101Z,57.40
2019-06-10T13:56:39.898Z,57.80
2019-06-10T13:58:49.236Z,57.80
2019-06-10T14:01:21.940Z,57.90
2019-06-10T14:03:48.337Z,57.60
2019-06-10T14:06:37.131Z,57.50
2019-06-10T14:08:47.496Z,57.50
2019-06-10T14:11:16.304Z,57.80
2019-06-10T14:13:45.049Z,57.60
2019-06-10T14:16:15.037Z,57.40
2019-06-10T14:18:43.996Z,57.60
2019-06-10T14:21:17.986Z,57.90
2019-06-10T14:23:43.093Z,57.70
2019-06-10T14:26:16.681Z,57.20
2019-06-10T14:28:44.443Z,56.80
2019-06-10T14:31:35.553Z,56.70
2019-06-10T14:33:43.058Z,56.80
2019-06-10T14:36:15.106Z,56.70
2019-06-10T14:38:42.284Z,56.60
2019-06-10T14:41:12.198Z,56.20
2019-06-10T14:43:42.391Z,56.20
2019-06-10T14:46:14.354Z,56.00
2019-06-10T14:48:42.642Z,55.90
2019-06-10T14:51:14.009Z,55.70
2019-06-10T14:53:42.708Z,55.80
2019-06-10T14:56:14.899Z,55.70
2019-06-10T14:58:42.530Z,55.80
2019-06-10T15:01:13.385Z,55.90
2019-06-10T15:03:42.976Z,56.20
2019-06-10T15:06:11.877Z,57.00
2019-06-10T15:08:42.855Z,57.60
2019-06-10T15:11:11.647Z,57.70
2019-06-10T15:13:43.315Z,57.70
2019-06-10T15:16:12.185Z,58.30
2019-06-10T15:18:43.136Z,58.70
2019-06-10T15:21:11.454Z,59.00
2019-06-10T15:23:42.739Z,59.70
2019-06-10T15:26:13.133Z,59.10
2019-06-10T15:28:42.748Z,59.00
2019-06-10T15:31:13.548Z,58.70
2019-06-10T15:33:43.079Z,58.50
2019-06-10T15:36:13.106Z,57.80
2019-06-10T15:38:44.065Z,57.90
2019-06-10T15:41:16.050Z,57.60
2019-06-10T15:43:42.761Z,58.40
2019-06-10T15:46:12.964Z,57.90
2019-06-10T15:48:43.030Z,58.00
2019-06-10T15:51:13.929Z,57.70
2019-06-10T15:53:43.096Z,57.80
2019-06-10T15:56:23.757Z,57.90
2019-06-10T15:58:42.946Z,58.10
2019-06-10T16:01:14.589Z,58.70
2019-06-10T16:03:42.473Z,59.20
2019-06-10T16:06:12.117Z,59.10
2019-06-10T16:08:43.032Z,59.40
2019-06-10T16:11:13.780Z,59.50
2019-06-10T16:13:43.006Z,59.80
2019-06-10T16:16:12.821Z,60.30
2019-06-10T16:18:42.398Z,60.50
2019-06-10T16:21:13.252Z,60.30
2019-06-10T16:23:43.056Z,60.40
2019-06-10T16:26:13.099Z,60.60
2019-06-10T16:28:42.694Z,61.50
2019-06-10T16:31:13.121Z,62.20
2019-06-10T16:33:49.294Z,62.60
2019-06-10T16:36:12.448Z,62.70
2019-06-10T16:38:42.361Z,62.30
2019-06-10T16:41:12.341Z,62.80
2019-06-10T16:43:42.824Z,63.30
2019-06-10T16:46:11.799Z,62.60
2019-06-10T16:48:43.430Z,62.80
2019-06-10T16:51:13.262Z,62.50
2019-06-10T16:53:42.659Z,62.20
2019-06-10T16:56:12.190Z,62.40
2019-06-10T16:58:43.126Z,63.00
2019-06-10T17:01:12.460Z,63.20
2019-06-10T17:03:42.495Z,63.20
2019-06-10T17:06:13.095Z,63.10
2019-06-10T17:08:42.619Z,63.10
2019-06-10T17:11:12.405Z,63.10
2019-06-10T17:13:42.279Z,63.00
2019-06-10T17:16:12.681Z,63.00
2019-06-10T17:18:41.609Z,62.90
2019-06-10T17:21:13.024Z,63.00
2019-06-10T17:23:43.137Z,63.20
2019-06-10T17:26:11.120Z,63.40
2019-06-10T17:28:39.828Z,63.00
2019-06-10T17:31:08.591Z,62.90
2019-06-10T17:33:37.409Z,62.60
2019-06-10T17:36:06.126Z,61.70
2019-06-10T17:38:34.846Z,62.20
2019-06-10T17:41:03.616Z,63.50
2019-06-10T17:43:34.195Z,62.80
2019-06-10T17:46:03.318Z,65.20
2019-06-10T17:48:33.617Z,66.10
2019-06-10T17:51:04.020Z,69.20
2019-06-10T17:53:34.860Z,67.80
2019-06-10T17:56:03.535Z,70.10
2019-06-10T17:58:47.496Z,72.30
2019-06-10T18:01:02.740Z,71.60
2019-06-10T18:03:31.470Z,70.70
2019-06-10T18:06:02.615Z,70.80
2019-06-10T18:08:32.373Z,70.40
2019-06-10T18:11:03.079Z,70.60
2019-06-10T18:13:33.091Z,70.80
2019-06-10T18:16:02.779Z,71.90
2019-06-10T18:18:35.650Z,73.20
2019-06-10T18:21:03.356Z,73.90
2019-06-10T18:23:33.126Z,73.90
2019-06-10T18:26:03.195Z,73.90
2019-06-10T18:28:35.978Z,73.80
2019-06-10T18:31:02.671Z,74.90
2019-06-10T18:33:34.163Z,74.90
2019-06-10T18:36:01.766Z,74.40
2019-06-10T18:38:33.633Z,74.80
2019-06-10T18:41:03.263Z,75.80
2019-06-10T18:43:32.590Z,75.70
2019-06-10T18:46:03.498Z,75.00
2019-06-10T18:48:35.982Z,74.90
2019-06-10T18:51:02.429Z,74.30
2019-06-10T18:53:34.470Z,74.70
2019-06-10T18:56:01.516Z,75.00
2019-06-10T18:58:32.720Z,75.40
2019-06-10T19:01:05.192Z,76.20
2019-06-10T19:03:33.408Z,77.10
2019-06-10T19:06:01.496Z,77.30
2019-06-10T19:08:33.693Z,77.70
2019-06-10T19:11:02.431Z,77.80
2019-06-10T19:13:34.098Z,77.90
2019-06-10T19:16:02.432Z,78.50
2019-06-10T19:18:31.917Z,78.40
2019-06-10T19:21:03.587Z,78.80
2019-06-10T19:23:33.440Z,78.90
2019-06-10T19:26:02.954Z,79.10
2019-06-10T19:28:33.853Z,79.30
2019-06-10T19:31:02.509Z,79.10
2019-06-10T19:33:34.113Z,79.20
2019-06-10T19:36:02.268Z,79.20
2019-06-10T19:38:32.407Z,78.60
2019-06-10T19:41:02.740Z,79.50
2019-06-10T19:43:34.599Z,79.50
2019-06-10T19:46:04.396Z,80.00
2019-06-10T19:48:35.383Z,80.20
2019-06-10T19:51:03.203Z,80.50
2019-06-10T19:53:33.015Z,79.90
2019-06-10T19:56:02.672Z,79.70
2019-06-10T19:58:32.301Z,79.50
2019-06-10T20:01:01.367Z,79.40
2019-06-10T20:03:32.519Z,79.60
2019-06-10T20:06:02.895Z,79.10
2019-06-10T20:08:32.928Z,78.90
2019-06-10T20:11:03.254Z,78.10
2019-06-10T20:13:32.451Z,78.70
2019-06-10T20:16:02.949Z,78.70
2019-06-10T20:18:33.184Z,78.60
2019-06-10T20:21:02.751Z,78.70
2019-06-10T20:23:33.353Z,78.90
2019-06-10T20:26:02.216Z,78.40
2019-06-10T20:28:32.113Z,78.40
2019-06-10T20:31:01.107Z,78.80
2019-06-10T20:33:36.187Z,78.70
2019-06-10T20:36:03.331Z,79.30
2019-06-10T20:38:32.623Z,79.40
2019-06-10T20:41:02.578Z,79.40
2019-06-10T20:43:32.836Z,79.30
2019-06-10T20:46:02.800Z,79.10
2019-06-10T20:48:33.333Z,78.80
2019-06-10T20:51:03.250Z,78.80
2019-06-10T20:53:33.790Z,78.90
2019-06-10T20:56:03.770Z,78.90
2019-06-10T20:58:33.268Z,78.80
2019-06-10T21:01:04.616Z,78.90
2019-06-10T21:03:32.537Z,78.90
2019-06-10T21:06:03.219Z,79.20
2019-06-10T21:08:33.843Z,79.40
2019-06-10T21:11:03.147Z,79.40
2019-06-10T21:13:33.267Z,79.70
2019-06-10T21:16:03.737Z,79.70
2019-06-10T21:18:33.054Z,79.70
2019-06-10T21:21:02.307Z,80.10
2019-06-10T21:23:31.171Z,80.10
2019-06-10T21:26:02.567Z,80.10
2019-06-10T21:28:32.435Z,80.40
2019-06-10T21:31:02.830Z,80.50
2019-06-10T21:33:32.936Z,80.70
2019-06-10T21:36:03.959Z,80.70
2019-06-10T21:38:32.276Z,80.90
2019-06-10T21:41:03.254Z,81.20
2019-06-10T21:43:33.083Z,81.40
2019-06-10T21:46:03.680Z,81.30
2019-06-10T21:48:32.448Z,81.60
2019-06-10T21:51:01.226Z,81.60
2019-06-10T21:53:30.000Z,81.70
2019-06-10T21:55:58.724Z,82.10
2019-06-10T21:58:27.445Z,82.10
2019-06-10T22:01:09.858Z,82.20
2019-06-10T22:03:27.237Z,82.50
2019-06-10T22:05:55.961Z,82.40
2019-06-10T22:08:24.716Z,82.60
2019-06-10T22:10:56.143Z,82.90
2019-06-10T22:13:23.815Z,83.10
2019-06-10T22:15:54.873Z,83.30
2019-06-10T22:18:23.053Z,83.60
2019-06-10T22:20:56.075Z,83.50
2019-06-10T22:23:23.236Z,83.50
2019-06-10T22:25:55.681Z,83.50
2019-06-10T22:28:22.620Z,83.70
2019-06-10T22:30:54.266Z,83.70
2019-06-10T22:33:22.648Z,83.20
2019-06-10T22:35:54.571Z,83.30
2019-06-10T22:38:22.287Z,83.20
2019-06-10T22:40:53.321Z,83.10
2019-06-10T22:43:23.582Z,83.30
2019-06-10T22:45:53.913Z,83.00
2019-06-10T22:48:22.517Z,83.10
2019-06-10T22:50:51.370Z,82.70
2019-06-10T22:53:22.976Z,82.40
2019-06-10T22:55:53.048Z,82.50
2019-06-10T22:58:23.731Z,82.40
2019-06-10T23:00:53.241Z,82.50
2019-06-10T23:03:21.989Z,82.70
2019-06-10T23:05:50.742Z,82.90
2019-06-10T23:08:19.464Z,82.90
2019-06-10T23:10:48.538Z,83.10
2019-06-10T23:13:17.347Z,83.10
2019-06-10T23:15:46.083Z,83.40
2019-06-10T23:18:14.824Z,83.40
2019-06-10T23:20:43.538Z,83.90
2019-06-10T23:23:12.900Z,84.10
2019-06-10T23:25:43.015Z,84.20
2019-06-10T23:28:13.018Z,84.20
2019-06-10T23:30:42.630Z,84.50
2019-06-10T23:33:12.660Z,84.60
2019-06-10T23:35:43.091Z,84.90
2019-06-10T23:38:13.308Z,85.30
2019-06-10T23:40:43.016Z,85.60
2019-06-10T23:43:13.318Z,85.80
2019-06-10T23:45:42.457Z,86.10
2019-06-10T23:48:13.425Z,86.50
2019-06-10T23:50:43.684Z,86.80
2019-06-10T23:53:13.159Z,86.80
2019-06-10T23:55:42.841Z,87.00
2019-06-10T23:58:12.881Z,87.20
